Time;durP1;ratioP1;P1;durP2;ratioP2;P2;SDS_P1;SDS_P2;PMS_P1;PMS_P2;Temp;Humidity;BMP_temperature;BMP_pressure;BME280_temperature;BME280_humidity;BME280_pressure;Samples;Min_cycle;Max_cycle;Signal;HPM_P1;HPM_P2
2021/08/07 00:02:58;;;;;;;2.60;2.08;;;21.50;68.80;;;;;;10459569;28;20090;-55
2021/08/07 00:07:59;;;;;;;4.57;2.05;;;21.50;68.80;;;;;;10459583;28;20110;-55
2021/08/07 00:13:00;;;;;;;3.47;1.90;;;21.50;68.70;;;;;;10458787;28;20112;-55
2021/08/07 00:18:01;;;;;;;2.90;1.80;;;21.50;68.60;;;;;;10458778;28;20389;-55
2021/08/07 00:23:02;;;;;;;4.00;1.77;;;21.50;68.60;;;;;;10440769;28;20040;-55
2021/08/07 00:28:03;;;;;;;3.33;1.65;;;21.50;68.60;;;;;;10445566;28;20078;-55
2021/08/07 00:33:03;;;;;;;4.03;2.13;;;21.50;68.60;;;;;;10449105;28;20037;-55
2021/08/07 00:38:04;;;;;;;4.07;2.10;;;21.50;68.60;;;;;;10457677;28;20032;-55
2021/08/07 00:43:08;;;;;;;4.38;1.90;;;21.50;68.50;;;;;;10456946;28;20035;-55
2021/08/07 00:48:10;;;;;;;2.80;2.15;;;21.50;68.40;;;;;;10457313;28;20040;-55
2021/08/07 00:53:11;;;;;;;3.90;2.05;;;21.40;68.60;;;;;;10457327;28;20029;-54
2021/08/07 00:58:11;;;;;;;3.58;1.83;;;21.40;69.00;;;;;;10440123;28;20162;-55
2021/08/07 01:03:48;;;;;;;3.47;2.28;;;21.50;69.00;;;;;;10439177;28;20075;-55
2021/08/07 01:09:15;;;;;;;2.50;1.80;;;21.50;69.00;;;;;;10420757;28;20370;-56
2021/08/07 01:14:24;;;;;;;4.05;1.88;;;21.40;69.10;;;;;;10440279;28;20041;-55
2021/08/07 01:19:33;;;;;;;3.20;1.95;;;21.50;69.30;;;;;;10457553;28;20029;-55
2021/08/07 01:24:54;;;;;;;3.63;2.00;;;21.50;69.20;;;;;;10454334;28;20036;-54
2021/08/07 01:29:56;;;;;;;3.78;2.25;;;21.40;69.10;;;;;;10438185;28;20056;-56
2021/08/07 01:34:59;;;;;;;4.00;2.10;;;21.50;68.80;;;;;;10447326;28;20031;-55
2021/08/07 01:40:00;;;;;;;3.28;1.75;;;21.50;68.90;;;;;;10451679;28;20029;-54
2021/08/07 01:45:00;;;;;;;3.25;2.20;;;21.40;69.00;;;;;;10456277;28;20436;-56
2021/08/07 01:50:07;;;;;;;5.22;2.08;;;21.40;68.90;;;;;;10456123;28;20068;-55
2021/08/07 01:55:27;;;;;;;5.10;2.03;;;21.40;68.60;;;;;;10455735;28;20029;-55
2021/08/07 02:00:29;;;;;;;3.92;2.17;;;21.40;68.50;;;;;;10456401;28;20220;-56
2021/08/07 02:05:30;;;;;;;4.90;2.60;;;21.40;68.40;;;;;;10455581;28;20529;-55
2021/08/07 02:10:31;;;;;;;2.70;1.70;;;21.40;68.50;;;;;;10438045;28;20493;-55
2021/08/07 02:15:34;;;;;;;5.25;2.38;;;21.40;68.40;;;;;;10455364;28;20037;-55
2021/08/07 02:20:34;;;;;;;5.60;2.40;;;21.40;68.50;;;;;;10437858;28;20031;-55
2021/08/07 02:25:35;;;;;;;3.17;2.03;;;21.40;69.20;;;;;;10455321;28;20029;-55
2021/08/07 02:30:38;;;;;;;2.50;1.90;;;21.40;68.50;;;;;;10455336;28;20446;-56
2021/08/07 02:35:39;;;;;;;3.80;2.08;;;21.40;68.60;;;;;;10463551;28;20498;-55
2021/08/07 02:40:40;;;;;;;4.50;2.30;;;21.40;68.60;;;;;;10437986;28;20025;-55
2021/08/07 02:45:41;;;;;;;5.75;2.28;;;21.40;68.70;;;;;;10437104;28;20044;-55
2021/08/07 02:50:44;;;;;;;5.68;2.33;;;21.40;68.60;;;;;;10437342;28;20508;-55
2021/08/07 02:55:45;;;;;;;3.17;2.05;;;21.30;68.70;;;;;;10437174;28;20045;-56
2021/08/07 03:00:46;;;;;;;6.38;3.05;;;21.30;68.60;;;;;;10448385;28;20385;-55
2021/08/07 03:05:47;;;;;;;4.32;2.50;;;21.40;68.70;;;;;;10453417;28;20036;-55
2021/08/07 03:10:48;;;;;;;5.57;2.97;;;21.40;68.70;;;;;;10461038;28;20405;-55
2021/08/07 03:15:49;;;;;;;4.35;2.75;;;21.40;68.90;;;;;;10461494;28;20033;-55
2021/08/07 03:20:56;;;;;;;6.25;2.60;;;21.40;68.70;;;;;;10461282;28;20029;-55
2021/08/07 03:25:57;;;;;;;3.90;2.70;;;21.30;68.70;;;;;;10457959;28;20069;-55
2021/08/07 03:30:58;;;;;;;4.63;2.33;;;21.30;68.80;;;;;;10463492;28;21340;-55
2021/08/07 03:35:59;;;;;;;3.03;2.15;;;21.30;68.70;;;;;;10466535;28;20086;-55
2021/08/07 03:41:00;;;;;;;3.35;2.55;;;21.30;68.80;;;;;;10460458;28;20082;-55
2021/08/07 03:46:00;;;;;;;5.22;2.45;;;21.30;68.80;;;;;;10459730;28;20052;-55
2021/08/07 03:51:01;;;;;;;5.13;2.30;;;21.30;68.70;;;;;;10459877;28;20102;-55
2021/08/07 03:56:03;;;;;;;4.15;2.40;;;21.30;68.80;;;;;;10459575;28;20028;-55
2021/08/07 04:01:03;;;;;;;3.22;2.33;;;21.30;68.80;;;;;;10459589;28;20025;-55
2021/08/07 04:06:04;;;;;;;5.68;2.85;;;21.30;68.90;;;;;;10458902;28;20025;-56
2021/08/07 04:11:05;;;;;;;4.82;2.47;;;21.30;68.80;;;;;;10458835;28;20120;-56
2021/08/07 04:16:05;;;;;;;3.90;2.38;;;21.30;68.80;;;;;;10416962;28;20029;-55
2021/08/07 04:21:06;;;;;;;4.57;2.65;;;21.30;68.70;;;;;;10455886;28;20025;-55
2021/08/07 04:26:07;;;;;;;4.15;2.47;;;21.30;68.80;;;;;;10444396;28;20056;-56
2021/08/07 04:31:07;;;;;;;4.28;2.53;;;21.30;68.70;;;;;;10463314;28;20116;-55
2021/08/07 04:36:08;;;;;;;5.38;2.47;;;21.30;68.80;;;;;;10463657;28;20072;-55
2021/08/07 04:41:09;;;;;;;4.50;2.55;;;21.30;68.90;;;;;;10459138;28;20075;-55
2021/08/07 04:46:10;;;;;;;3.15;1.92;;;21.20;69.00;;;;;;10458746;28;20052;-56
2021/08/07 04:51:11;;;;;;;3.28;2.20;;;21.20;69.10;;;;;;10458744;28;20086;-54
2021/08/07 04:56:11;;;;;;;5.25;2.55;;;21.20;69.20;;;;;;10449671;28;20033;-58
2021/08/07 05:01:12;;;;;;;4.28;2.60;;;21.30;70.20;;;;;;10457835;28;20039;-55
2021/08/07 05:06:12;;;;;;;4.28;2.28;;;21.30;70.60;;;;;;10457637;28;20043;-56
2021/08/07 05:11:13;;;;;;;5.57;3.20;;;21.40;70.30;;;;;;10439078;28;20075;-56
2021/08/07 05:16:14;;;;;;;7.43;2.67;;;21.40;70.50;;;;;;10456797;28;20036;-58
2021/08/07 05:21:14;;;;;;;5.03;2.42;;;21.40;70.80;;;;;;10456173;28;20420;-55
2021/08/07 05:26:15;;;;;;;4.00;2.17;;;21.40;70.20;;;;;;10433170;28;20489;-55
2021/08/07 05:31:16;;;;;;;5.45;2.17;;;21.40;70.10;;;;;;10448043;28;20362;-54
2021/08/07 05:36:16;;;;;;;4.20;2.13;;;21.40;70.00;;;;;;10441744;28;20537;-54
2021/08/07 05:41:17;;;;;;;5.20;2.22;;;21.30;69.70;;;;;;10455997;28;20063;-54
2021/08/07 05:46:18;;;;;;;3.58;2.22;;;21.30;69.80;;;;;;10454600;28;20101;-53
2021/08/07 05:51:18;;;;;;;4.00;2.63;;;21.30;69.70;;;;;;10428210;28;20037;-54
2021/08/07 05:56:19;;;;;;;4.78;2.33;;;21.30;70.30;;;;;;10455585;28;20069;-54
2021/08/07 06:01:20;;;;;;;2.72;2.08;;;21.40;70.40;;;;;;10454917;28;20033;-53
2021/08/07 06:06:20;;;;;;;4.30;2.17;;;21.40;70.40;;;;;;10450254;28;20052;-55
2021/08/07 06:11:21;;;;;;;5.95;2.00;;;21.40;70.60;;;;;;10449283;28;20468;-55
2021/08/07 06:16:22;;;;;;;5.28;2.53;;;21.40;70.10;;;;;;10454155;28;20107;-49
2021/08/07 06:21:23;;;;;;;11.50;2.90;;;21.40;70.20;;;;;;10454777;28;20037;-48
2021/08/07 06:26:24;;;;;;;8.25;2.92;;;21.40;70.10;;;;;;10436482;28;20086;-47
2021/08/07 06:31:24;;;;;;;9.68;2.97;;;21.40;70.70;;;;;;10446690;28;20057;-46
2021/08/07 06:36:25;;;;;;;13.32;3.38;;;21.40;70.50;;;;;;10439505;28;20079;-49
2021/08/07 06:41:26;;;;;;;20.23;3.40;;;21.40;70.20;;;;;;10455907;28;20053;-47
2021/08/07 06:46:26;;;;;;;23.85;3.97;;;21.40;70.20;;;;;;10463228;28;20041;-46
2021/08/07 06:51:27;;;;;;;23.05;4.47;;;21.30;70.20;;;;;;10462430;28;20113;-46
2021/08/07 06:56:28;;;;;;;21.08;4.15;;;21.40;70.60;;;;;;10462446;28;20041;-46
2021/08/07 07:01:28;;;;;;;20.88;5.32;;;21.40;70.50;;;;;;10462643;28;20560;-53
2021/08/07 07:06:29;;;;;;;20.50;3.60;;;21.40;70.40;;;;;;10461744;28;20051;-53
2021/08/07 07:11:30;;;;;;;21.63;5.28;;;21.40;70.40;;;;;;10446290;28;20037;-50
2021/08/07 07:16:30;;;;;;;20.02;3.78;;;21.40;70.50;;;;;;10461890;28;20104;-49
2021/08/07 07:21:31;;;;;;;20.70;3.92;;;21.40;70.70;;;;;;10453328;28;20033;-48
2021/08/07 07:26:33;;;;;;;13.00;3.53;;;21.40;70.50;;;;;;10437518;28;20354;-49
2021/08/07 07:31:33;;;;;;;14.65;3.60;;;21.40;70.60;;;;;;10457839;28;20029;-54
2021/08/07 07:36:34;;;;;;;18.50;3.20;;;21.40;70.60;;;;;;10460141;28;20476;-53
2021/08/07 07:41:35;;;;;;;18.52;3.75;;;21.40;70.60;;;;;;10448678;28;20025;-51
2021/08/07 07:46:35;;;;;;;15.27;3.65;;;21.40;70.60;;;;;;10442256;28;20453;-55
2021/08/07 07:51:36;;;;;;;19.58;3.42;;;21.40;70.80;;;;;;10459861;28;20025;-52
2021/08/07 07:56:37;;;;;;;15.02;3.13;;;21.40;70.50;;;;;;10459986;28;20033;-52
2021/08/07 08:01:37;;;;;;;15.02;3.30;;;21.40;70.10;;;;;;10458858;28;20024;-50
2021/08/07 08:06:38;;;;;;;17.75;3.22;;;21.40;70.30;;;;;;10458266;28;20122;-48
2021/08/07 08:11:39;;;;;;;10.60;4.30;;;21.40;69.90;;;;;;10457271;28;20037;-50
2021/08/07 08:16:40;;;;;;;6.38;2.45;;;21.40;69.60;;;;;;10457734;28;20033;-49
2021/08/07 08:21:40;;;;;;;12.63;3.15;;;21.40;69.70;;;;;;10458523;28;20374;-48
2021/08/07 08:26:41;;;;;;;8.07;2.40;;;21.40;69.80;;;;;;10458617;28;20025;-49
2021/08/07 08:31:42;;;;;;;5.88;2.70;;;21.40;69.20;;;;;;10447817;28;20048;-48
2021/08/07 08:36:43;;;;;;;7.18;2.13;;;21.40;69.40;;;;;;10457895;28;20025;-48
2021/08/07 08:41:44;;;;;;;5.88;2.15;;;21.40;69.20;;;;;;10458612;28;20045;-49
2021/08/07 08:46:45;;;;;;;6.93;1.95;;;21.40;69.30;;;;;;10440379;28;20515;-49
2021/08/07 08:51:48;;;;;;;9.13;2.45;;;21.40;69.30;;;;;;10449683;28;20045;-48
2021/08/07 08:56:50;;;;;;;6.53;1.85;;;21.40;69.10;;;;;;10457482;28;20081;-49
2021/08/07 09:01:51;;;;;;;5.97;2.40;;;21.40;69.20;;;;;;10457713;28;20032;-51
2021/08/07 09:06:53;;;;;;;6.80;1.73;;;21.40;69.00;;;;;;10439048;28;20067;-50
2021/08/07 09:11:54;;;;;;;12.32;3.65;;;21.50;68.80;;;;;;10439431;28;20048;-50
2021/08/07 09:16:58;;;;;;;6.50;2.42;;;21.50;69.00;;;;;;10457302;28;20079;-48
2021/08/07 09:22:11;;;;;;;7.18;2.70;;;21.50;68.50;;;;;;10457059;28;20033;-49
2021/08/07 09:27:12;;;;;;;5.32;2.00;;;21.50;68.80;;;;;;10444037;28;20084;-50
2021/08/07 09:32:13;;;;;;;7.88;2.65;;;21.40;68.40;;;;;;10447452;28;20077;-49
2021/08/07 09:37:18;;;;;;;6.70;2.08;;;21.50;68.50;;;;;;10455948;28;20128;-47
2021/08/07 09:42:19;;;;;;;6.07;3.05;;;21.50;68.80;;;;;;10456441;28;20063;-52
2021/08/07 09:47:19;;;;;;;4.93;1.92;;;21.50;68.90;;;;;;10455806;28;20156;-48
2021/08/07 09:52:20;;;;;;;7.15;2.15;;;21.50;68.90;;;;;;10455863;28;20485;-48
2021/08/07 09:57:29;;;;;;;4.70;1.60;;;21.50;68.80;;;;;;10456116;28;20036;-48
2021/08/07 10:02:36;;;;;;;;;;;21.60;68.80;;;;;;10455623;28;20032;-48
2021/08/07 10:07:37;;;;;;;5.90;2.28;;;21.60;68.70;;;;;;10455621;28;20320;-51
2021/08/07 10:12:45;;;;;;;4.03;1.50;;;21.60;68.80;;;;;;10455169;28;20049;-48
2021/08/07 10:17:46;;;;;;;3.42;1.60;;;21.60;68.60;;;;;;10454589;28;20044;-49
2021/08/07 10:22:49;;;;;;;2.03;1.33;;;21.60;68.70;;;;;;10447413;28;20373;-48
2021/08/07 10:27:56;;;;;;;4.43;2.33;;;21.60;68.50;;;;;;10440371;28;20033;-49
2021/08/07 10:32:58;;;;;;;3.17;1.60;;;21.60;68.70;;;;;;10434679;28;20428;-52
2021/08/07 10:37:59;;;;;;;7.20;2.15;;;21.60;69.20;;;;;;10454949;28;20025;-47
2021/08/07 10:43:00;;;;;;;4.05;1.75;;;21.60;68.70;;;;;;10450393;28;20036;-48
2021/08/07 10:48:01;;;;;;;5.47;1.67;;;21.60;68.60;;;;;;10454324;28;20103;-46
2021/08/07 10:53:26;;;;;;;5.07;1.70;;;21.60;68.30;;;;;;10454624;28;20407;-48
2021/08/07 10:58:44;;;;;;;4.50;1.67;;;21.60;68.20;;;;;;10448492;28;20069;-47
2021/08/07 11:03:47;;;;;;;3.38;1.90;;;21.70;68.00;;;;;;10454294;28;20056;-49
2021/08/07 11:09:24;;;;;;;5.47;2.25;;;21.60;67.70;;;;;;10453751;28;20538;-48
2021/08/07 11:14:28;;;;;;;4.57;2.28;;;21.60;67.90;;;;;;10445002;28;20048;-48
2021/08/07 11:20:10;;;;;;;2.20;1.20;;;21.60;67.80;;;;;;10433069;28;20044;-49
2021/08/07 11:25:21;;;;;;;5.47;1.60;;;21.60;67.80;;;;;;10453703;28;20025;-49
2021/08/07 11:30:37;;;;;;;4.38;1.92;;;21.70;67.80;;;;;;10439971;28;20039;-49
2021/08/07 11:35:38;;;;;;;8.73;2.00;;;21.70;67.70;;;;;;10469508;28;20025;-50
2021/08/07 11:41:05;;;;;;;4.05;1.75;;;21.70;67.60;;;;;;10461242;28;20025;-50
2021/08/07 11:46:11;;;;;;;4.68;2.13;;;21.80;67.60;;;;;;10460498;28;20044;-48
2021/08/07 11:51:15;;;;;;;3.22;2.22;;;21.80;67.70;;;;;;10454844;28;20573;-47
2021/08/07 11:56:22;;;;;;;3.97;1.98;;;21.80;67.60;;;;;;10441062;28;20045;-51
2021/08/07 12:01:37;;;;;;;6.57;1.77;;;21.80;67.30;;;;;;10459975;28;20032;-50
2021/08/07 12:06:41;;;;;;;7.25;2.17;;;21.80;67.50;;;;;;10452298;28;20039;-48
2021/08/07 12:11:43;;;;;;;6.10;2.92;;;21.80;67.50;;;;;;10456895;28;20083;-52
2021/08/07 12:16:43;;;;;;;7.22;1.88;;;21.90;67.60;;;;;;10457311;28;20033;-48
2021/08/07 12:21:44;;;;;;;6.97;2.13;;;21.90;67.80;;;;;;10458877;28;20052;-51
2021/08/07 12:26:58;;;;;;;3.97;1.90;;;22.00;67.60;;;;;;10456513;28;20029;-51
2021/08/07 12:32:04;;;;;;;3.85;1.33;;;22.10;67.60;;;;;;10457344;28;20035;-48
2021/08/07 12:37:04;;;;;;;5.82;1.63;;;22.10;67.20;;;;;;10457325;28;20369;-47
2021/08/07 12:42:07;;;;;;;6.68;2.03;;;22.10;67.50;;;;;;10450566;28;20025;-47
2021/08/07 12:47:08;;;;;;;10.35;2.38;;;22.10;67.40;;;;;;10440145;28;20041;-48
2021/08/07 12:52:18;;;;;;;7.53;2.50;;;22.00;67.60;;;;;;10440616;28;20029;-48
2021/08/07 12:57:20;;;;;;;4.18;1.70;;;22.10;67.10;;;;;;10439760;28;20028;-48
2021/08/07 13:02:23;;;;;;;4.70;2.00;;;22.00;67.40;;;;;;10439285;28;20040;-49
2021/08/07 13:07:31;;;;;;;7.88;2.30;;;22.00;67.40;;;;;;10450030;28;20508;-53
2021/08/07 13:12:42;;;;;;;8.18;1.85;;;22.00;67.30;;;;;;10457346;28;20047;-53
2021/08/07 13:17:48;;;;;;;2.75;1.58;;;22.00;67.20;;;;;;10456699;28;20156;-53
2021/08/07 13:23:01;;;;;;;6.53;1.98;;;22.00;67.30;;;;;;10456608;28;20029;-52
2021/08/07 13:28:14;;;;;;;3.60;1.75;;;22.00;67.20;;;;;;10437082;28;20040;-51
2021/08/07 13:33:22;;;;;;;4.13;1.95;;;22.00;67.00;;;;;;10464966;28;20040;-51
2021/08/07 13:38:24;;;;;;;2.97;1.35;;;22.00;67.40;;;;;;10439879;28;20043;-53
2021/08/07 13:43:25;;;;;;;9.65;2.03;;;22.00;67.20;;;;;;10456265;28;20113;-51
2021/08/07 13:48:26;;;;;;;4.07;1.85;;;22.00;67.70;;;;;;10421546;28;20152;-51
2021/08/07 13:53:26;;;;;;;7.05;1.58;;;22.00;66.70;;;;;;10455320;28;20033;-52
2021/08/07 13:58:27;;;;;;;5.50;2.35;;;22.00;66.80;;;;;;10455974;28;20104;-53
2021/08/07 14:03:28;;;;;;;2.40;1.52;;;22.00;66.70;;;;;;10455842;28;20029;-52
2021/08/07 14:08:29;;;;;;;2.75;1.60;;;22.00;66.50;;;;;;10455709;28;20029;-52
2021/08/07 14:13:30;;;;;;;5.85;1.63;;;22.00;66.70;;;;;;10455185;28;20483;-52
2021/08/07 14:18:30;;;;;;;5.65;1.88;;;22.00;66.80;;;;;;10455887;28;20108;-51
2021/08/07 14:23:31;;;;;;;3.65;1.60;;;22.00;66.80;;;;;;10437734;28;20465;-52
2021/08/07 14:28:32;;;;;;;3.65;1.55;;;22.00;66.60;;;;;;10455130;28;20021;-52
2021/08/07 14:33:33;;;;;;;3.08;1.70;;;22.00;66.60;;;;;;10461021;28;20116;-51
2021/08/07 14:38:33;;;;;;;3.50;1.45;;;22.10;66.70;;;;;;10455045;28;20094;-52
2021/08/07 14:43:34;;;;;;;4.43;1.77;;;22.00;66.40;;;;;;10455013;28;20037;-52
2021/08/07 14:48:37;;;;;;;2.95;1.40;;;22.00;66.40;;;;;;10454601;28;20120;-52
2021/08/07 14:53:38;;;;;;;3.83;1.83;;;22.00;66.40;;;;;;10453803;28;20550;-53
2021/08/07 14:58:38;;;;;;;4.97;1.60;;;22.00;66.50;;;;;;10454831;28;20033;-52
2021/08/07 15:03:39;;;;;;;2.97;1.90;;;22.00;66.40;;;;;;10457610;28;20110;-52
2021/08/07 15:08:40;;;;;;;2.75;1.67;;;22.00;66.50;;;;;;10457481;28;20064;-53
2021/08/07 15:13:40;;;;;;;3.80;1.33;;;22.00;66.30;;;;;;10461236;28;20346;-52
2021/08/07 15:18:41;;;;;;;2.53;1.40;;;22.00;66.50;;;;;;10444210;28;20079;-54
2021/08/07 15:23:42;;;;;;;3.10;1.52;;;21.90;66.60;;;;;;10460811;28;20491;-51
2021/08/07 15:28:43;;;;;;;10.93;2.28;;;21.90;66.60;;;;;;10455963;28;20064;-53
2021/08/07 15:33:44;;;;;;;13.35;2.47;;;22.00;67.30;;;;;;10463130;28;20021;-54
2021/08/07 15:38:45;;;;;;;3.45;1.75;;;22.00;67.40;;;;;;10460865;28;20036;-48
2021/08/07 15:43:46;;;;;;;12.48;5.28;;;21.90;67.30;;;;;;10461301;28;20032;-48
2021/08/07 15:48:47;;;;;;;17.10;5.85;;;22.00;69.10;;;;;;10460773;28;20057;-47
2021/08/07 15:53:48;;;;;;;8.93;3.83;;;22.00;72.50;;;;;;10443105;28;20440;-53
2021/08/07 15:58:48;;;;;;;6.28;2.30;;;22.00;70.40;;;;;;10460789;28;20087;-49
2021/08/07 16:03:49;;;;;;;9.00;2.53;;;22.00;67.80;;;;;;10457355;28;20121;-46
2021/08/07 16:08:50;;;;;;;5.55;2.13;;;22.00;69.10;;;;;;10460285;28;20043;-49
2021/08/07 16:13:50;;;;;;;7.70;2.63;;;22.00;69.60;;;;;;10459914;28;20159;-50
2021/08/07 16:18:51;;;;;;;9.45;2.30;;;22.00;68.80;;;;;;10455863;28;20029;-51
2021/08/07 16:23:52;;;;;;;6.40;2.28;;;22.00;69.10;;;;;;10459760;28;20131;-49
2021/08/07 16:28:53;;;;;;;13.25;2.15;;;22.10;69.30;;;;;;10459335;28;20492;-47
2021/08/07 16:33:54;;;;;;;9.20;2.67;;;22.00;69.60;;;;;;10461658;28;20040;-51
2021/08/07 16:38:56;;;;;;;13.48;2.92;;;22.00;68.90;;;;;;10459251;28;20067;-47
2021/08/07 16:43:57;;;;;;;13.23;2.63;;;22.00;69.10;;;;;;10458315;28;20408;-49
2021/08/07 16:48:57;;;;;;;14.43;2.72;;;22.00;69.40;;;;;;10458205;28;20081;-46
2021/08/07 16:53:58;;;;;;;15.07;3.33;;;22.00;69.50;;;;;;10458367;28;20064;-52
2021/08/07 16:58:59;;;;;;;17.20;3.58;;;22.00;69.80;;;;;;10458249;28;20104;-48
2021/08/07 17:03:59;;;;;;;11.00;2.65;;;22.00;69.70;;;;;;10457963;28;20434;-51
2021/08/07 17:09:00;;;;;;;7.57;2.17;;;22.00;69.60;;;;;;10457732;28;20032;-47
2021/08/07 17:14:02;;;;;;;3.33;1.65;;;22.00;69.40;;;;;;10439784;28;20120;-45
2021/08/07 17:19:02;;;;;;;7.05;2.42;;;21.90;69.10;;;;;;10457487;28;20075;-45
2021/08/07 17:24:04;;;;;;;5.40;1.85;;;21.90;69.20;;;;;;10439146;28;20373;-45
2021/08/07 17:29:07;;;;;;;5.60;2.15;;;21.90;69.10;;;;;;10455830;28;20060;-47
2021/08/07 17:34:08;;;;;;;8.80;2.58;;;21.90;69.70;;;;;;10456579;28;20107;-50
2021/08/07 17:39:08;;;;;;;5.05;1.60;;;21.90;70.20;;;;;;10456441;28;20044;-47
2021/08/07 17:44:09;;;;;;;9.35;2.33;;;21.90;70.60;;;;;;10456584;28;20072;-50
2021/08/07 17:49:10;;;;;;;5.10;1.90;;;21.90;71.40;;;;;;10437792;28;20150;-48
2021/08/07 17:54:11;;;;;;;3.92;2.15;;;21.90;70.60;;;;;;10453023;28;20473;-47
2021/08/07 17:59:12;;;;;;;6.03;2.03;;;22.00;69.80;;;;;;10447024;28;20522;-47
2021/08/07 18:04:15;;;;;;;8.15;1.70;;;21.90;69.60;;;;;;10454492;28;20112;-47
2021/08/07 18:09:16;;;;;;;4.82;1.90;;;21.90;69.80;;;;;;10453499;28;20040;-47
2021/08/07 18:14:16;;;;;;;3.72;1.52;;;21.90;69.80;;;;;;10452567;28;20537;-47
2021/08/07 18:19:17;;;;;;;4.97;1.77;;;21.90;69.80;;;;;;10434184;28;20025;-48
2021/08/07 18:24:18;;;;;;;3.83;1.90;;;21.90;69.70;;;;;;10427207;28;20052;-48
2021/08/07 18:29:18;;;;;;;4.72;1.27;;;21.90;69.70;;;;;;10449264;28;20120;-45
2021/08/07 18:34:19;;;;;;;3.55;1.48;;;21.90;69.60;;;;;;10462908;28;20111;-47
2021/08/07 18:39:21;;;;;;;5.85;1.48;;;21.90;69.50;;;;;;10451684;28;20036;-49
2021/08/07 18:44:25;;;;;;;3.08;1.33;;;21.90;69.40;;;;;;10458854;28;20025;-45
2021/08/07 18:49:26;;;;;;;5.15;2.05;;;21.90;69.70;;;;;;10453076;28;20516;-48
2021/08/07 18:54:27;;;;;;;4.53;1.70;;;21.90;69.30;;;;;;10457754;28;20048;-48
2021/08/07 18:59:28;;;;;;;4.50;1.73;;;21.90;69.50;;;;;;10453549;28;20044;-49
2021/08/07 19:04:28;;;;;;;3.20;1.40;;;21.90;69.60;;;;;;10451500;28;20670;-48
2021/08/07 19:09:29;;;;;;;3.22;1.92;;;21.90;69.50;;;;;;10443183;28;20455;-47
2021/08/07 19:14:30;;;;;;;2.58;1.27;;;21.90;69.60;;;;;;10460851;28;20370;-50
2021/08/07 19:19:30;;;;;;;4.13;1.33;;;21.90;69.90;;;;;;10444344;28;20021;-49
2021/08/07 19:24:31;;;;;;;3.20;1.40;;;21.90;70.10;;;;;;10461753;28;20060;-47
2021/08/07 19:29:32;;;;;;;3.85;1.40;;;21.90;70.10;;;;;;10460631;28;20025;-48
2021/08/07 19:34:33;;;;;;;2.78;1.20;;;21.90;70.20;;;;;;10461519;28;20033;-48
2021/08/07 19:39:33;;;;;;;5.07;1.60;;;21.90;70.30;;;;;;10448462;28;20033;-47
2021/08/07 19:44:34;;;;;;;3.03;1.40;;;21.90;70.40;;;;;;10463468;28;20035;-48
2021/08/07 19:49:35;;;;;;;3.42;1.60;;;21.90;70.30;;;;;;10453693;28;20131;-51
2021/08/07 19:54:35;;;;;;;5.55;1.70;;;21.90;70.30;;;;;;10450944;28;20041;-48
2021/08/07 19:59:36;;;;;;;2.83;1.60;;;21.90;70.50;;;;;;10439935;28;20129;-50
2021/08/07 20:04:37;;;;;;;4.63;1.92;;;21.90;70.30;;;;;;10459492;28;20039;-47
2021/08/07 20:09:38;;;;;;;2.97;1.52;;;21.90;70.30;;;;;;10458096;28;20040;-47
2021/08/07 20:14:38;;;;;;;3.67;1.60;;;21.90;70.30;;;;;;10458840;28;20090;-47
2021/08/07 20:19:41;;;;;;;3.88;1.27;;;21.90;70.30;;;;;;10459441;28;20039;-48
2021/08/07 20:24:41;;;;;;;3.03;1.40;;;21.80;70.30;;;;;;10459655;28;20067;-47
2021/08/07 20:29:43;;;;;;;2.80;1.88;;;21.80;70.20;;;;;;10459612;28;20508;-48
2021/08/07 20:34:44;;;;;;;3.05;1.52;;;21.80;70.10;;;;;;10467927;28;20488;-46
2021/08/07 20:39:45;;;;;;;5.43;1.90;;;21.80;70.00;;;;;;10459442;28;20032;-47
2021/08/07 20:44:45;;;;;;;2.25;1.33;;;21.80;69.90;;;;;;10459247;28;20100;-48
2021/08/07 20:49:46;;;;;;;3.17;1.60;;;21.80;69.90;;;;;;10458747;28;20037;-47
2021/08/07 20:54:47;;;;;;;6.25;1.77;;;21.80;69.80;;;;;;10458759;28;20039;-47
2021/08/07 20:59:48;;;;;;;3.60;1.77;;;21.70;69.60;;;;;;10439771;28;20490;-47
2021/08/07 21:04:49;;;;;;;4.10;1.83;;;21.80;69.70;;;;;;10458110;28;20106;-48
2021/08/07 21:09:50;;;;;;;3.80;1.73;;;21.70;69.60;;;;;;10458369;28;20555;-49
2021/08/07 21:14:50;;;;;;;3.58;1.67;;;21.70;69.60;;;;;;10440016;28;20037;-47
2021/08/07 21:19:52;;;;;;;2.63;1.67;;;21.70;69.70;;;;;;10457857;28;20100;-47
2021/08/07 21:24:52;;;;;;;2.88;1.60;;;21.70;69.80;;;;;;10446577;28;20029;-47
2021/08/07 21:29:53;;;;;;;3.28;1.50;;;21.70;70.00;;;;;;10453981;28;20377;-50
2021/08/07 21:34:53;;;;;;;2.28;1.10;;;21.70;70.00;;;;;;10447691;28;20453;-48
2021/08/07 21:39:54;;;;;;;1.73;0.98;;;21.70;69.90;;;;;;10456899;28;20059;-48
2021/08/07 21:44:55;;;;;;;2.55;1.42;;;21.70;69.80;;;;;;10456411;28;20071;-47
2021/08/07 21:49:56;;;;;;;2.67;1.50;;;21.70;69.90;;;;;;10456154;28;20102;-49
2021/08/07 21:54:57;;;;;;;2.53;1.30;;;21.70;69.70;;;;;;10456382;28;20052;-47
2021/08/07 21:59:59;;;;;;;2.92;1.15;;;21.70;69.60;;;;;;10456525;28;20104;-48
2021/08/07 22:05:00;;;;;;;2.45;1.30;;;21.70;69.30;;;;;;10456102;28;20036;-49
2021/08/07 22:10:01;;;;;;;5.22;1.60;;;21.70;69.20;;;;;;10456040;28;20453;-48
2021/08/07 22:15:01;;;;;;;2.75;1.52;;;21.60;69.10;;;;;;10455503;28;20119;-48
2021/08/07 22:20:02;;;;;;;3.25;1.40;;;21.60;68.90;;;;;;10438555;28;20499;-50
2021/08/07 22:25:05;;;;;;;2.33;1.00;;;21.70;69.00;;;;;;10455471;28;20351;-47
2021/08/07 22:30:07;;;;;;;2.58;1.50;;;21.60;68.90;;;;;;10455773;28;20110;-49
2021/08/07 22:35:09;;;;;;;3.17;1.55;;;21.60;69.00;;;;;;10463203;28;20058;-48
2021/08/07 22:40:10;;;;;;;3.08;1.25;;;21.60;68.90;;;;;;10455301;28;20064;-51
2021/08/07 22:45:11;;;;;;;4.35;1.50;;;21.60;68.90;;;;;;10455185;28;20056;-47
2021/08/07 22:50:11;;;;;;;2.70;1.30;;;21.60;68.80;;;;;;10443981;28;20128;-50
2021/08/07 22:55:13;;;;;;;3.05;1.45;;;21.60;68.90;;;;;;10454854;28;20056;-48
2021/08/07 23:00:14;;;;;;;2.97;1.38;;;21.60;68.90;;;;;;10455140;28;20054;-49
2021/08/07 23:05:15;;;;;;;1.98;1.23;;;21.60;68.70;;;;;;10454565;28;20622;-47
2021/08/07 23:10:15;;;;;;;3.15;1.25;;;21.60;69.30;;;;;;10454765;28;20462;-48
2021/08/07 23:15:16;;;;;;;2.67;1.35;;;21.50;68.70;;;;;;10454476;28;20151;-47
2021/08/07 23:20:17;;;;;;;3.13;1.25;;;21.60;68.80;;;;;;10454631;28;20025;-50
2021/08/07 23:25:18;;;;;;;2.70;1.17;;;21.50;68.80;;;;;;10444091;28;20060;-48
2021/08/07 23:30:18;;;;;;;3.00;1.17;;;21.60;68.90;;;;;;10455532;28;20068;-48
2021/08/07 23:35:19;;;;;;;6.47;1.30;;;21.50;68.90;;;;;;10453017;28;20549;-48
2021/08/07 23:40:20;;;;;;;2.17;1.13;;;21.50;69.00;;;;;;10461376;28;20493;-48
2021/08/07 23:45:21;;;;;;;1.35;1.10;;;21.50;68.90;;;;;;10460903;28;20137;-47
2021/08/07 23:50:21;;;;;;;2.47;1.25;;;21.50;68.90;;;;;;10460524;28;20462;-48
2021/08/07 23:55:23;;;;;;;3.95;1.63;;;21.50;68.90;;;;;;10460500;28;20033;-49
